sensor_id;sensor_type;location;lat;lon;timestamp;P1;durP1;ratioP1;P2;durP2;ratioP2
12120;SDS011;6124;59.460;17.908;2022-10-26T00:01:39;1.70;;;1.60;;
12120;SDS011;6124;59.460;17.908;2022-10-26T00:04:06;1.83;;;1.40;;
12120;SDS011;6124;59.460;17.908;2022-10-26T00:06:35;1.60;;;1.40;;
12120;SDS011;6124;59.460;17.908;2022-10-26T00:09:02;1.60;;;1.20;;
12120;SDS011;6124;59.460;17.908;2022-10-26T00:11:29;1.30;;;1.20;;
12120;SDS011;6124;59.460;17.908;2022-10-26T00:13:57;1.30;;;1.20;;
12120;SDS011;6124;59.460;17.908;2022-10-26T00:16:25;1.40;;;1.30;;
12120;SDS011;6124;59.460;17.908;2022-10-26T00:18:52;1.23;;;1.00;;
12120;SDS011;6124;59.460;17.908;2022-10-26T00:21:19;2.77;;;1.00;;
12120;SDS011;6124;59.460;17.908;2022-10-26T00:23:48;1.30;;;1.20;;
12120;SDS011;6124;59.460;17.908;2022-10-26T00:26:15;1.30;;;0.93;;
12120;SDS011;6124;59.460;17.908;2022-10-26T00:28:42;1.10;;;1.00;;
12120;SDS011;6124;59.460;17.908;2022-10-26T00:31:11;4.27;;;1.10;;
12120;SDS011;6124;59.460;17.908;2022-10-26T00:33:38;0.90;;;0.90;;
12120;SDS011;6124;59.460;17.908;2022-10-26T00:36:06;2.70;;;1.03;;
12120;SDS011;6124;59.460;17.908;2022-10-26T00:38:34;1.53;;;0.90;;
12120;SDS011;6124;59.460;17.908;2022-10-26T00:41:03;1.40;;;0.83;;
12120;SDS011;6124;59.460;17.908;2022-10-26T00:43:33;0.80;;;0.80;;
12120;SDS011;6124;59.460;17.908;2022-10-26T00:46:00;0.80;;;0.80;;
12120;SDS011;6124;59.460;17.908;2022-10-26T00:48:29;1.10;;;1.00;;
12120;SDS011;6124;59.460;17.908;2022-10-26T00:51:01;0.80;;;0.80;;
12120;SDS011;6124;59.460;17.908;2022-10-26T00:53:30;0.80;;;0.80;;
12120;SDS011;6124;59.460;17.908;2022-10-26T00:55:58;0.70;;;0.70;;
12120;SDS011;6124;59.460;17.908;2022-10-26T00:58:27;1.90;;;0.87;;
12120;SDS011;6124;59.460;17.908;2022-10-26T01:00:55;1.33;;;0.83;;
12120;SDS011;6124;59.460;17.908;2022-10-26T01:03:22;0.97;;;0.70;;
12120;SDS011;6124;59.460;17.908;2022-10-26T01:05:50;1.47;;;0.67;;
12120;SDS011;6124;59.460;17.908;2022-10-26T01:08:19;0.97;;;0.70;;
12120;SDS011;6124;59.460;17.908;2022-10-26T01:10:47;0.53;;;0.53;;
12120;SDS011;6124;59.460;17.908;2022-10-26T01:13:14;1.97;;;0.70;;
12120;SDS011;6124;59.460;17.908;2022-10-26T01:15:47;1.27;;;0.60;;
12120;SDS011;6124;59.460;17.908;2022-10-26T01:18:18;0.70;;;0.70;;
12120;SDS011;6124;59.460;17.908;2022-10-26T01:21:07;1.10;;;0.70;;
12120;SDS011;6124;59.460;17.908;2022-10-26T01:23:37;1.07;;;0.70;;
12120;SDS011;6124;59.460;17.908;2022-10-26T01:26:12;1.17;;;0.80;;
12120;SDS011;6124;59.460;17.908;2022-10-26T01:28:52;1.07;;;0.70;;
12120;SDS011;6124;59.460;17.908;2022-10-26T01:31:26;1.20;;;0.90;;
12120;SDS011;6124;59.460;17.908;2022-10-26T01:33:55;0.97;;;0.80;;
12120;SDS011;6124;59.460;17.908;2022-10-26T01:36:27;1.27;;;0.73;;
12120;SDS011;6124;59.460;17.908;2022-10-26T01:38:59;1.03;;;0.93;;
12120;SDS011;6124;59.460;17.908;2022-10-26T01:41:28;1.00;;;0.90;;
12120;SDS011;6124;59.460;17.908;2022-10-26T01:44:02;0.97;;;0.90;;
12120;SDS011;6124;59.460;17.908;2022-10-26T01:46:33;2.13;;;0.90;;
12120;SDS011;6124;59.460;17.908;2022-10-26T01:49:02;1.00;;;0.90;;
12120;SDS011;6124;59.460;17.908;2022-10-26T01:51:32;0.90;;;0.90;;
12120;SDS011;6124;59.460;17.908;2022-10-26T01:54:00;1.00;;;0.90;;
12120;SDS011;6124;59.460;17.908;2022-10-26T01:56:28;2.50;;;0.90;;
12120;SDS011;6124;59.460;17.908;2022-10-26T02:01:53;2.17;;;0.90;;
12120;SDS011;6124;59.460;17.908;2022-10-26T02:04:25;1.20;;;0.90;;
12120;SDS011;6124;59.460;17.908;2022-10-26T02:06:59;1.67;;;0.87;;
12120;SDS011;6124;59.460;17.908;2022-10-26T02:09:29;1.37;;;0.80;;
12120;SDS011;6124;59.460;17.908;2022-10-26T02:12:00;0.83;;;0.83;;
12120;SDS011;6124;59.460;17.908;2022-10-26T02:14:30;1.80;;;1.00;;
12120;SDS011;6124;59.460;17.908;2022-10-26T02:17:03;1.33;;;1.10;;
12120;SDS011;6124;59.460;17.908;2022-10-26T02:19:32;1.70;;;1.07;;
12120;SDS011;6124;59.460;17.908;2022-10-26T02:22:04;1.53;;;0.80;;
12120;SDS011;6124;59.460;17.908;2022-10-26T02:24:32;1.53;;;0.70;;
12120;SDS011;6124;59.460;17.908;2022-10-26T02:27:00;1.33;;;0.90;;
12120;SDS011;6124;59.460;17.908;2022-10-26T02:29:30;2.47;;;1.00;;
12120;SDS011;6124;59.460;17.908;2022-10-26T02:31:58;1.00;;;0.90;;
12120;SDS011;6124;59.460;17.908;2022-10-26T02:34:28;1.17;;;0.90;;
12120;SDS011;6124;59.460;17.908;2022-10-26T02:36:56;1.30;;;0.80;;
12120;SDS011;6124;59.460;17.908;2022-10-26T02:39:26;0.50;;;0.50;;
12120;SDS011;6124;59.460;17.908;2022-10-26T02:41:56;1.37;;;0.70;;
12120;SDS011;6124;59.460;17.908;2022-10-26T02:44:26;0.80;;;0.70;;
12120;SDS011;6124;59.460;17.908;2022-10-26T02:46:55;0.70;;;0.60;;
12120;SDS011;6124;59.460;17.908;2022-10-26T02:49:22;1.43;;;0.70;;
12120;SDS011;6124;59.460;17.908;2022-10-26T02:51:52;1.63;;;0.67;;
12120;SDS011;6124;59.460;17.908;2022-10-26T02:54:23;0.60;;;0.60;;
12120;SDS011;6124;59.460;17.908;2022-10-26T02:56:52;0.90;;;0.80;;
12120;SDS011;6124;59.460;17.908;2022-10-26T02:59:21;0.90;;;0.70;;
12120;SDS011;6124;59.460;17.908;2022-10-26T03:01:50;1.47;;;0.97;;
12120;SDS011;6124;59.460;17.908;2022-10-26T03:04:19;1.13;;;1.00;;
12120;SDS011;6124;59.460;17.908;2022-10-26T03:06:52;3.03;;;1.03;;
12120;SDS011;6124;59.460;17.908;2022-10-26T03:09:20;1.13;;;1.03;;
12120;SDS011;6124;59.460;17.908;2022-10-26T03:11:47;1.20;;;1.10;;
12120;SDS011;6124;59.460;17.908;2022-10-26T03:14:14;1.50;;;1.40;;
12120;SDS011;6124;59.460;17.908;2022-10-26T03:16:41;1.57;;;1.47;;
12120;SDS011;6124;59.460;17.908;2022-10-26T03:19:09;1.23;;;1.10;;
12120;SDS011;6124;59.460;17.908;2022-10-26T03:21:36;1.43;;;1.30;;
12120;SDS011;6124;59.460;17.908;2022-10-26T03:24:05;1.30;;;1.20;;
12120;SDS011;6124;59.460;17.908;2022-10-26T03:26:32;1.43;;;1.00;;
12120;SDS011;6124;59.460;17.908;2022-10-26T03:28:59;2.13;;;1.40;;
12120;SDS011;6124;59.460;17.908;2022-10-26T03:31:27;1.37;;;1.10;;
12120;SDS011;6124;59.460;17.908;2022-10-26T03:33:54;1.40;;;1.10;;
12120;SDS011;6124;59.460;17.908;2022-10-26T03:36:21;1.77;;;1.10;;
12120;SDS011;6124;59.460;17.908;2022-10-26T03:38:48;1.67;;;1.10;;
12120;SDS011;6124;59.460;17.908;2022-10-26T03:41:17;1.40;;;0.90;;
12120;SDS011;6124;59.460;17.908;2022-10-26T03:43:44;1.93;;;1.00;;
12120;SDS011;6124;59.460;17.908;2022-10-26T03:46:12;1.20;;;1.10;;
12120;SDS011;6124;59.460;17.908;2022-10-26T03:48:40;2.37;;;1.20;;
12120;SDS011;6124;59.460;17.908;2022-10-26T03:51:07;2.23;;;1.00;;
12120;SDS011;6124;59.460;17.908;2022-10-26T03:53:34;1.10;;;1.00;;
12120;SDS011;6124;59.460;17.908;2022-10-26T03:56:01;3.20;;;0.97;;
12120;SDS011;6124;59.460;17.908;2022-10-26T03:58:30;1.40;;;1.10;;
12120;SDS011;6124;59.460;17.908;2022-10-26T04:00:57;1.23;;;0.90;;
12120;SDS011;6124;59.460;17.908;2022-10-26T04:03:25;1.33;;;1.00;;
12120;SDS011;6124;59.460;17.908;2022-10-26T04:05:52;1.20;;;1.10;;
12120;SDS011;6124;59.460;17.908;2022-10-26T04:08:19;1.40;;;1.20;;
12120;SDS011;6124;59.460;17.908;2022-10-26T04:10:46;2.17;;;1.30;;
12120;SDS011;6124;59.460;17.908;2022-10-26T04:13:14;1.40;;;1.30;;
12120;SDS011;6124;59.460;17.908;2022-10-26T04:15:42;3.60;;;1.70;;
12120;SDS011;6124;59.460;17.908;2022-10-26T04:18:10;3.70;;;1.70;;
12120;SDS011;6124;59.460;17.908;2022-10-26T04:20:38;1.70;;;1.43;;
12120;SDS011;6124;59.460;17.908;2022-10-26T04:23:08;1.73;;;1.60;;
12120;SDS011;6124;59.460;17.908;2022-10-26T04:25:36;3.23;;;1.70;;
12120;SDS011;6124;59.460;17.908;2022-10-26T04:28:04;1.50;;;1.40;;
12120;SDS011;6124;59.460;17.908;2022-10-26T04:30:32;2.30;;;1.70;;
12120;SDS011;6124;59.460;17.908;2022-10-26T04:33:01;2.60;;;1.60;;
12120;SDS011;6124;59.460;17.908;2022-10-26T04:35:28;2.57;;;1.40;;
12120;SDS011;6124;59.460;17.908;2022-10-26T04:37:56;2.27;;;1.30;;
12120;SDS011;6124;59.460;17.908;2022-10-26T04:40:23;1.53;;;1.40;;
12120;SDS011;6124;59.460;17.908;2022-10-26T04:42:51;1.53;;;1.30;;
12120;SDS011;6124;59.460;17.908;2022-10-26T04:45:18;1.57;;;1.40;;
12120;SDS011;6124;59.460;17.908;2022-10-26T04:47:45;2.10;;;1.40;;
12120;SDS011;6124;59.460;17.908;2022-10-26T04:50:14;1.60;;;1.40;;
12120;SDS011;6124;59.460;17.908;2022-10-26T04:52:41;2.20;;;1.30;;
12120;SDS011;6124;59.460;17.908;2022-10-26T04:55:08;1.40;;;1.10;;
12120;SDS011;6124;59.460;17.908;2022-10-26T04:57:35;1.77;;;1.37;;
12120;SDS011;6124;59.460;17.908;2022-10-26T05:00:03;1.40;;;1.30;;
12120;SDS011;6124;59.460;17.908;2022-10-26T05:02:30;2.40;;;1.43;;
12120;SDS011;6124;59.460;17.908;2022-10-26T05:04:58;2.37;;;1.30;;
12120;SDS011;6124;59.460;17.908;2022-10-26T05:07:26;2.20;;;1.23;;
12120;SDS011;6124;59.460;17.908;2022-10-26T05:09:53;1.77;;;1.30;;
12120;SDS011;6124;59.460;17.908;2022-10-26T05:12:21;1.33;;;1.23;;
12120;SDS011;6124;59.460;17.908;2022-10-26T05:14:48;1.87;;;1.30;;
12120;SDS011;6124;59.460;17.908;2022-10-26T05:17:15;1.37;;;1.13;;
12120;SDS011;6124;59.460;17.908;2022-10-26T05:19:42;1.83;;;1.10;;
12120;SDS011;6124;59.460;17.908;2022-10-26T05:22:16;1.57;;;1.00;;
12120;SDS011;6124;59.460;17.908;2022-10-26T05:24:45;1.37;;;1.20;;
12120;SDS011;6124;59.460;17.908;2022-10-26T05:27:12;2.43;;;1.13;;
12120;SDS011;6124;59.460;17.908;2022-10-26T05:29:39;1.80;;;1.13;;
12120;SDS011;6124;59.460;17.908;2022-10-26T05:32:07;1.83;;;1.30;;
12120;SDS011;6124;59.460;17.908;2022-10-26T05:34:34;1.90;;;1.30;;
12120;SDS011;6124;59.460;17.908;2022-10-26T05:37:01;1.93;;;1.13;;
12120;SDS011;6124;59.460;17.908;2022-10-26T05:39:28;1.50;;;1.10;;
12120;SDS011;6124;59.460;17.908;2022-10-26T05:41:57;2.83;;;1.30;;
12120;SDS011;6124;59.460;17.908;2022-10-26T05:44:24;1.33;;;1.20;;
12120;SDS011;6124;59.460;17.908;2022-10-26T05:46:51;1.83;;;1.67;;
12120;SDS011;6124;59.460;17.908;2022-10-26T05:49:19;2.60;;;1.30;;
12120;SDS011;6124;59.460;17.908;2022-10-26T05:51:46;2.40;;;1.40;;
12120;SDS011;6124;59.460;17.908;2022-10-26T05:54:13;3.40;;;1.23;;
12120;SDS011;6124;59.460;17.908;2022-10-26T05:56:40;3.33;;;1.40;;
12120;SDS011;6124;59.460;17.908;2022-10-26T05:59:11;1.50;;;1.40;;
12120;SDS011;6124;59.460;17.908;2022-10-26T06:01:43;2.87;;;1.60;;
12120;SDS011;6124;59.460;17.908;2022-10-26T06:04:15;2.83;;;1.47;;
12120;SDS011;6124;59.460;17.908;2022-10-26T06:06:45;1.70;;;1.40;;
12120;SDS011;6124;59.460;17.908;2022-10-26T06:09:13;1.97;;;1.40;;
12120;SDS011;6124;59.460;17.908;2022-10-26T06:11:41;1.40;;;1.20;;
12120;SDS011;6124;59.460;17.908;2022-10-26T06:14:08;2.63;;;1.30;;
12120;SDS011;6124;59.460;17.908;2022-10-26T06:16:39;2.87;;;1.20;;
12120;SDS011;6124;59.460;17.908;2022-10-26T06:19:12;1.67;;;1.20;;
12120;SDS011;6124;59.460;17.908;2022-10-26T06:21:45;2.40;;;1.37;;
12120;SDS011;6124;59.460;17.908;2022-10-26T06:24:18;1.50;;;1.40;;
12120;SDS011;6124;59.460;17.908;2022-10-26T06:26:50;1.97;;;1.20;;
12120;SDS011;6124;59.460;17.908;2022-10-26T06:29:21;2.13;;;1.30;;
12120;SDS011;6124;59.460;17.908;2022-10-26T06:31:52;6.17;;;1.73;;
12120;SDS011;6124;59.460;17.908;2022-10-26T06:34:21;1.93;;;1.10;;
12120;SDS011;6124;59.460;17.908;2022-10-26T06:36:49;1.40;;;1.30;;
12120;SDS011;6124;59.460;17.908;2022-10-26T06:39:16;2.77;;;1.60;;
12120;SDS011;6124;59.460;17.908;2022-10-26T06:41:44;3.10;;;1.80;;
12120;SDS011;6124;59.460;17.908;2022-10-26T06:44:11;1.93;;;1.60;;
12120;SDS011;6124;59.460;17.908;2022-10-26T06:46:42;1.90;;;1.50;;
12120;SDS011;6124;59.460;17.908;2022-10-26T06:49:15;2.00;;;1.50;;
12120;SDS011;6124;59.460;17.908;2022-10-26T06:51:46;2.53;;;1.70;;
12120;SDS011;6124;59.460;17.908;2022-10-26T06:54:17;2.70;;;1.93;;
12120;SDS011;6124;59.460;17.908;2022-10-26T06:56:46;2.43;;;1.53;;
12120;SDS011;6124;59.460;17.908;2022-10-26T06:59:14;2.43;;;1.80;;
12120;SDS011;6124;59.460;17.908;2022-10-26T07:01:43;2.70;;;2.10;;
12120;SDS011;6124;59.460;17.908;2022-10-26T07:04:10;2.80;;;1.97;;
12120;SDS011;6124;59.460;17.908;2022-10-26T07:06:39;3.10;;;1.73;;
12120;SDS011;6124;59.460;17.908;2022-10-26T07:09:06;2.03;;;1.67;;
12120;SDS011;6124;59.460;17.908;2022-10-26T07:11:33;2.20;;;1.87;;
12120;SDS011;6124;59.460;17.908;2022-10-26T07:14:00;2.47;;;1.60;;
12120;SDS011;6124;59.460;17.908;2022-10-26T07:16:28;3.03;;;1.90;;
12120;SDS011;6124;59.460;17.908;2022-10-26T07:18:55;1.80;;;1.53;;
12120;SDS011;6124;59.460;17.908;2022-10-26T07:21:22;2.53;;;1.60;;
12120;SDS011;6124;59.460;17.908;2022-10-26T07:23:51;3.73;;;2.03;;
12120;SDS011;6124;59.460;17.908;2022-10-26T07:26:21;2.53;;;1.90;;
12120;SDS011;6124;59.460;17.908;2022-10-26T07:28:49;2.57;;;1.90;;
12120;SDS011;6124;59.460;17.908;2022-10-26T07:31:17;2.57;;;1.60;;
12120;SDS011;6124;59.460;17.908;2022-10-26T07:33:44;2.70;;;1.50;;
12120;SDS011;6124;59.460;17.908;2022-10-26T07:36:11;2.20;;;1.60;;
12120;SDS011;6124;59.460;17.908;2022-10-26T07:38:38;2.63;;;1.77;;
12120;SDS011;6124;59.460;17.908;2022-10-26T07:41:07;2.07;;;1.70;;
12120;SDS011;6124;59.460;17.908;2022-10-26T07:43:34;3.50;;;2.17;;
12120;SDS011;6124;59.460;17.908;2022-10-26T07:46:01;2.93;;;1.97;;
12120;SDS011;6124;59.460;17.908;2022-10-26T07:48:29;1.50;;;1.40;;
12120;SDS011;6124;59.460;17.908;2022-10-26T07:50:56;1.90;;;1.60;;
12120;SDS011;6124;59.460;17.908;2022-10-26T07:53:23;2.20;;;1.50;;
12120;SDS011;6124;59.460;17.908;2022-10-26T07:55:53;2.47;;;1.50;;
12120;SDS011;6124;59.460;17.908;2022-10-26T07:58:22;2.13;;;1.40;;
12120;SDS011;6124;59.460;17.908;2022-10-26T08:00:50;1.93;;;1.50;;
12120;SDS011;6124;59.460;17.908;2022-10-26T08:03:17;1.40;;;1.30;;
12120;SDS011;6124;59.460;17.908;2022-10-26T08:05:45;2.07;;;1.50;;
12120;SDS011;6124;59.460;17.908;2022-10-26T08:08:15;1.67;;;1.30;;
12120;SDS011;6124;59.460;17.908;2022-10-26T08:10:43;1.60;;;1.50;;
12120;SDS011;6124;59.460;17.908;2022-10-26T08:13:10;1.73;;;1.30;;
12120;SDS011;6124;59.460;17.908;2022-10-26T08:15:39;2.00;;;1.17;;
12120;SDS011;6124;59.460;17.908;2022-10-26T08:18:06;1.90;;;1.30;;
12120;SDS011;6124;59.460;17.908;2022-10-26T08:20:36;1.77;;;1.23;;
12120;SDS011;6124;59.460;17.908;2022-10-26T08:23:03;1.63;;;1.10;;
12120;SDS011;6124;59.460;17.908;2022-10-26T08:25:32;2.50;;;1.10;;
12120;SDS011;6124;59.460;17.908;2022-10-26T08:28:00;1.10;;;1.00;;
12120;SDS011;6124;59.460;17.908;2022-10-26T08:30:28;1.10;;;1.00;;
12120;SDS011;6124;59.460;17.908;2022-10-26T08:32:59;1.87;;;0.90;;
12120;SDS011;6124;59.460;17.908;2022-10-26T08:35:27;1.63;;;1.20;;
12120;SDS011;6124;59.460;17.908;2022-10-26T08:37:54;1.30;;;1.20;;
12120;SDS011;6124;59.460;17.908;2022-10-26T08:40:24;2.57;;;1.00;;
12120;SDS011;6124;59.460;17.908;2022-10-26T08:42:54;1.10;;;1.00;;
12120;SDS011;6124;59.460;17.908;2022-10-26T08:45:23;1.20;;;1.10;;
12120;SDS011;6124;59.460;17.908;2022-10-26T08:47:52;1.50;;;0.90;;
12120;SDS011;6124;59.460;17.908;2022-10-26T08:50:24;1.20;;;0.90;;
12120;SDS011;6124;59.460;17.908;2022-10-26T08:52:52;1.53;;;1.10;;
12120;SDS011;6124;59.460;17.908;2022-10-26T08:55:27;2.10;;;1.00;;
12120;SDS011;6124;59.460;17.908;2022-10-26T08:57:57;1.63;;;0.80;;
12120;SDS011;6124;59.460;17.908;2022-10-26T09:00:27;1.03;;;0.93;;
12120;SDS011;6124;59.460;17.908;2022-10-26T09:02:56;0.80;;;0.80;;
12120;SDS011;6124;59.460;17.908;2022-10-26T09:05:25;0.70;;;0.70;;
12120;SDS011;6124;59.460;17.908;2022-10-26T09:07:56;1.73;;;0.77;;
12120;SDS011;6124;59.460;17.908;2022-10-26T09:10:31;0.90;;;0.90;;
12120;SDS011;6124;59.460;17.908;2022-10-26T09:13:02;2.20;;;0.90;;
12120;SDS011;6124;59.460;17.908;2022-10-26T09:15:34;1.00;;;0.90;;
12120;SDS011;6124;59.460;17.908;2022-10-26T09:18:06;1.13;;;0.73;;
12120;SDS011;6124;59.460;17.908;2022-10-26T09:20:41;1.40;;;0.73;;
12120;SDS011;6124;59.460;17.908;2022-10-26T09:23:17;0.80;;;0.80;;
12120;SDS011;6124;59.460;17.908;2022-10-26T09:25:47;2.10;;;0.83;;
12120;SDS011;6124;59.460;17.908;2022-10-26T09:28:18;1.27;;;0.83;;
12120;SDS011;6124;59.460;17.908;2022-10-26T09:30:46;0.70;;;0.70;;
12120;SDS011;6124;59.460;17.908;2022-10-26T09:33:15;0.80;;;0.80;;
12120;SDS011;6124;59.460;17.908;2022-10-26T09:35:45;1.80;;;0.80;;
12120;SDS011;6124;59.460;17.908;2022-10-26T09:38:16;1.23;;;1.07;;
12120;SDS011;6124;59.460;17.908;2022-10-26T09:40:47;2.03;;;0.80;;
12120;SDS011;6124;59.460;17.908;2022-10-26T09:43:16;0.90;;;0.73;;
12120;SDS011;6124;59.460;17.908;2022-10-26T09:45:45;0.90;;;0.90;;
12120;SDS011;6124;59.460;17.908;2022-10-26T09:48:13;1.03;;;0.80;;
12120;SDS011;6124;59.460;17.908;2022-10-26T09:50:43;1.07;;;0.90;;
12120;SDS011;6124;59.460;17.908;2022-10-26T09:53:12;0.70;;;0.70;;
12120;SDS011;6124;59.460;17.908;2022-10-26T09:55:40;1.23;;;0.70;;
12120;SDS011;6124;59.460;17.908;2022-10-26T09:58:11;0.50;;;0.50;;
12120;SDS011;6124;59.460;17.908;2022-10-26T10:00:39;0.93;;;0.60;;
12120;SDS011;6124;59.460;17.908;2022-10-26T10:03:16;0.60;;;0.60;;
12120;SDS011;6124;59.460;17.908;2022-10-26T10:05:44;0.60;;;0.60;;
12120;SDS011;6124;59.460;17.908;2022-10-26T10:08:16;1.00;;;0.67;;
12120;SDS011;6124;59.460;17.908;2022-10-26T10:10:53;0.67;;;0.67;;
12120;SDS011;6124;59.460;17.908;2022-10-26T10:13:22;0.70;;;0.70;;
12120;SDS011;6124;59.460;17.908;2022-10-26T10:15:50;0.73;;;0.60;;
12120;SDS011;6124;59.460;17.908;2022-10-26T10:18:17;0.90;;;0.63;;
12120;SDS011;6124;59.460;17.908;2022-10-26T10:20:49;1.13;;;0.70;;
12120;SDS011;6124;59.460;17.908;2022-10-26T10:23:23;0.77;;;0.63;;
12120;SDS011;6124;59.460;17.908;2022-10-26T10:25:57;0.80;;;0.60;;
12120;SDS011;6124;59.460;17.908;2022-10-26T10:28:25;0.70;;;0.70;;
12120;SDS011;6124;59.460;17.908;2022-10-26T10:30:53;1.33;;;0.90;;
12120;SDS011;6124;59.460;17.908;2022-10-26T10:33:29;0.80;;;0.80;;
12120;SDS011;6124;59.460;17.908;2022-10-26T10:35:58;0.60;;;0.60;;
12120;SDS011;6124;59.460;17.908;2022-10-26T10:38:26;1.47;;;0.80;;
12120;SDS011;6124;59.460;17.908;2022-10-26T10:40:54;0.60;;;0.57;;
12120;SDS011;6124;59.460;17.908;2022-10-26T10:43:22;0.70;;;0.70;;
12120;SDS011;6124;59.460;17.908;2022-10-26T10:45:50;0.90;;;0.60;;
12120;SDS011;6124;59.460;17.908;2022-10-26T10:48:18;1.00;;;0.90;;
12120;SDS011;6124;59.460;17.908;2022-10-26T10:50:50;1.20;;;0.80;;
12120;SDS011;6124;59.460;17.908;2022-10-26T10:53:18;1.20;;;0.90;;
12120;SDS011;6124;59.460;17.908;2022-10-26T10:55:52;1.03;;;0.70;;
12120;SDS011;6124;59.460;17.908;2022-10-26T10:58:25;0.80;;;0.80;;
12120;SDS011;6124;59.460;17.908;2022-10-26T11:00:53;0.97;;;0.70;;
12120;SDS011;6124;59.460;17.908;2022-10-26T11:03:31;1.00;;;0.90;;
12120;SDS011;6124;59.460;17.908;2022-10-26T11:06:04;0.70;;;0.70;;
12120;SDS011;6124;59.460;17.908;2022-10-26T11:08:34;0.77;;;0.70;;
12120;SDS011;6124;59.460;17.908;2022-10-26T11:11:06;0.80;;;0.70;;
12120;SDS011;6124;59.460;17.908;2022-10-26T11:13:34;1.17;;;0.80;;
12120;SDS011;6124;59.460;17.908;2022-10-26T11:16:02;1.43;;;0.80;;
12120;SDS011;6124;59.460;17.908;2022-10-26T11:18:32;0.80;;;0.80;;
12120;SDS011;6124;59.460;17.908;2022-10-26T11:21:01;0.70;;;0.70;;
12120;SDS011;6124;59.460;17.908;2022-10-26T11:23:31;0.80;;;0.80;;
12120;SDS011;6124;59.460;17.908;2022-10-26T11:26:03;1.10;;;0.90;;
12120;SDS011;6124;59.460;17.908;2022-10-26T11:28:36;0.90;;;0.63;;
12120;SDS011;6124;59.460;17.908;2022-10-26T11:31:06;0.70;;;0.70;;
12120;SDS011;6124;59.460;17.908;2022-10-26T11:33:37;0.60;;;0.60;;
12120;SDS011;6124;59.460;17.908;2022-10-26T11:36:07;0.90;;;0.80;;
12120;SDS011;6124;59.460;17.908;2022-10-26T11:38:38;1.07;;;0.60;;
12120;SDS011;6124;59.460;17.908;2022-10-26T11:41:08;0.77;;;0.60;;
12120;SDS011;6124;59.460;17.908;2022-10-26T11:43:39;1.00;;;0.80;;
12120;SDS011;6124;59.460;17.908;2022-10-26T11:46:08;0.70;;;0.70;;
12120;SDS011;6124;59.460;17.908;2022-10-26T11:48:39;1.37;;;0.60;;
12120;SDS011;6124;59.460;17.908;2022-10-26T11:51:11;0.60;;;0.60;;
12120;SDS011;6124;59.460;17.908;2022-10-26T11:53:40;0.77;;;0.77;;
12120;SDS011;6124;59.460;17.908;2022-10-26T11:56:09;0.80;;;0.80;;
12120;SDS011;6124;59.460;17.908;2022-10-26T11:58:39;0.83;;;0.83;;
12120;SDS011;6124;59.460;17.908;2022-10-26T12:01:08;1.43;;;0.80;;
12120;SDS011;6124;59.460;17.908;2022-10-26T12:03:37;0.93;;;0.70;;
12120;SDS011;6124;59.460;17.908;2022-10-26T12:06:07;1.10;;;0.97;;
12120;SDS011;6124;59.460;17.908;2022-10-26T12:08:36;1.17;;;0.77;;
12120;SDS011;6124;59.460;17.908;2022-10-26T12:11:06;0.97;;;0.70;;
12120;SDS011;6124;59.460;17.908;2022-10-26T12:13:36;0.70;;;0.70;;
12120;SDS011;6124;59.460;17.908;2022-10-26T12:16:09;1.53;;;0.80;;
12120;SDS011;6124;59.460;17.908;2022-10-26T12:18:40;1.43;;;0.97;;
12120;SDS011;6124;59.460;17.908;2022-10-26T12:21:09;1.03;;;0.93;;
12120;SDS011;6124;59.460;17.908;2022-10-26T12:23:37;0.97;;;0.90;;
12120;SDS011;6124;59.460;17.908;2022-10-26T12:31:43;0.80;;;0.80;;
12120;SDS011;6124;59.460;17.908;2022-10-26T12:34:11;1.00;;;0.93;;
12120;SDS011;6124;59.460;17.908;2022-10-26T12:36:49;2.13;;;1.00;;
12120;SDS011;6124;59.460;17.908;2022-10-26T12:39:26;1.00;;;0.90;;
12120;SDS011;6124;59.460;17.908;2022-10-26T12:41:55;1.10;;;1.00;;
12120;SDS011;6124;59.460;17.908;2022-10-26T12:44:33;1.10;;;1.00;;
12120;SDS011;6124;59.460;17.908;2022-10-26T12:47:02;1.13;;;1.03;;
12120;SDS011;6124;59.460;17.908;2022-10-26T12:52:19;1.73;;;1.10;;
12120;SDS011;6124;59.460;17.908;2022-10-26T12:54:50;1.57;;;1.00;;
12120;SDS011;6124;59.460;17.908;2022-10-26T12:57:23;3.93;;;1.20;;
12120;SDS011;6124;59.460;17.908;2022-10-26T12:59:53;1.47;;;1.17;;
12120;SDS011;6124;59.460;17.908;2022-10-26T13:02:36;1.40;;;1.30;;
12120;SDS011;6124;59.460;17.908;2022-10-26T13:07:50;1.70;;;1.43;;
12120;SDS011;6124;59.460;17.908;2022-10-26T13:10:19;2.10;;;1.70;;
12120;SDS011;6124;59.460;17.908;2022-10-26T13:12:48;3.77;;;1.63;;
12120;SDS011;6124;59.460;17.908;2022-10-26T13:15:22;2.53;;;1.70;;
12120;SDS011;6124;59.460;17.908;2022-10-26T13:18:01;2.40;;;2.03;;
12120;SDS011;6124;59.460;17.908;2022-10-26T13:20:33;3.30;;;2.00;;
12120;SDS011;6124;59.460;17.908;2022-10-26T13:23:01;2.07;;;1.87;;
12120;SDS011;6124;59.460;17.908;2022-10-26T13:25:29;3.10;;;2.40;;
12120;SDS011;6124;59.460;17.908;2022-10-26T13:27:58;3.50;;;2.50;;
12120;SDS011;6124;59.460;17.908;2022-10-26T13:33:15;2.80;;;2.00;;
12120;SDS011;6124;59.460;17.908;2022-10-26T13:35:44;2.37;;;2.17;;
12120;SDS011;6124;59.460;17.908;2022-10-26T13:38:12;2.77;;;2.40;;
12120;SDS011;6124;59.460;17.908;2022-10-26T13:40:44;2.53;;;2.10;;
12120;SDS011;6124;59.460;17.908;2022-10-26T13:43:14;2.90;;;2.33;;
12120;SDS011;6124;59.460;17.908;2022-10-26T13:45:46;3.10;;;2.30;;
12120;SDS011;6124;59.460;17.908;2022-10-26T13:48:15;3.17;;;2.10;;
12120;SDS011;6124;59.460;17.908;2022-10-26T13:50:45;3.53;;;2.17;;
12120;SDS011;6124;59.460;17.908;2022-10-26T13:53:15;3.13;;;2.70;;
12120;SDS011;6124;59.460;17.908;2022-10-26T13:55:47;3.13;;;2.53;;
12120;SDS011;6124;59.460;17.908;2022-10-26T13:58:17;2.73;;;2.20;;
12120;SDS011;6124;59.460;17.908;2022-10-26T14:03:37;4.00;;;2.30;;
12120;SDS011;6124;59.460;17.908;2022-10-26T14:06:04;2.60;;;2.10;;
12120;SDS011;6124;59.460;17.908;2022-10-26T14:08:32;3.90;;;2.23;;
12120;SDS011;6124;59.460;17.908;2022-10-26T14:10:59;3.40;;;2.50;;
12120;SDS011;6124;59.460;17.908;2022-10-26T14:13:27;2.63;;;2.20;;
12120;SDS011;6124;59.460;17.908;2022-10-26T14:15:56;3.50;;;1.97;;
12120;SDS011;6124;59.460;17.908;2022-10-26T14:18:25;2.40;;;2.10;;
12120;SDS011;6124;59.460;17.908;2022-10-26T14:20:57;3.33;;;2.77;;
12120;SDS011;6124;59.460;17.908;2022-10-26T14:23:26;2.50;;;2.20;;
12120;SDS011;6124;59.460;17.908;2022-10-26T14:25:54;3.00;;;2.20;;
12120;SDS011;6124;59.460;17.908;2022-10-26T14:28:22;4.53;;;2.00;;
12120;SDS011;6124;59.460;17.908;2022-10-26T14:30:50;2.23;;;1.67;;
12120;SDS011;6124;59.460;17.908;2022-10-26T14:33:17;3.00;;;1.80;;
12120;SDS011;6124;59.460;17.908;2022-10-26T14:35:46;1.60;;;1.50;;
12120;SDS011;6124;59.460;17.908;2022-10-26T14:38:16;3.43;;;1.70;;
12120;SDS011;6124;59.460;17.908;2022-10-26T14:40:45;3.03;;;1.63;;
12120;SDS011;6124;59.460;17.908;2022-10-26T14:43:15;1.70;;;1.60;;
12120;SDS011;6124;59.460;17.908;2022-10-26T14:45:45;2.07;;;1.70;;
12120;SDS011;6124;59.460;17.908;2022-10-26T14:48:18;1.83;;;1.73;;
12120;SDS011;6124;59.460;17.908;2022-10-26T14:50:56;2.47;;;1.60;;
12120;SDS011;6124;59.460;17.908;2022-10-26T14:53:27;1.80;;;1.70;;
12120;SDS011;6124;59.460;17.908;2022-10-26T14:55:56;2.40;;;1.50;;
12120;SDS011;6124;59.460;17.908;2022-10-26T14:58:25;2.00;;;1.90;;
12120;SDS011;6124;59.460;17.908;2022-10-26T15:03:37;1.43;;;1.33;;
12120;SDS011;6124;59.460;17.908;2022-10-26T15:08:54;2.10;;;1.60;;
12120;SDS011;6124;59.460;17.908;2022-10-26T15:11:22;2.87;;;1.30;;
12120;SDS011;6124;59.460;17.908;2022-10-26T15:13:49;1.93;;;1.70;;
12120;SDS011;6124;59.460;17.908;2022-10-26T15:16:18;1.97;;;1.40;;
12120;SDS011;6124;59.460;17.908;2022-10-26T15:18:47;2.17;;;1.40;;
12120;SDS011;6124;59.460;17.908;2022-10-26T15:21:19;1.70;;;1.60;;
12120;SDS011;6124;59.460;17.908;2022-10-26T15:23:47;2.93;;;1.80;;
12120;SDS011;6124;59.460;17.908;2022-10-26T15:26:16;1.50;;;1.40;;